Time;durP1;ratioP1;P1;durP2;ratioP2;P2;SDS_P1;SDS_P2;PMS_P1;PMS_P2;Temp;Humidity;BMP_temperature;BMP_pressure;BME280_temperature;BME280_humidity;BME280_pressure;Samples;Min_cycle;Max_cycle;Signal;HPM_P1;HPM_P2
2023/11/26 00:00:12;;;;;;;;;;;77.30;2227.20;;;;;;4994033;28;20287;-75
2023/11/26 00:02:38;;;;;;;;;;;77.40;2227.20;;;;;;4994164;28;19921;-75
2023/11/26 00:05:04;;;;;;;;;;;77.40;2227.20;;;;;;4994171;28;20279;-75
2023/11/26 00:07:29;;;;;;;;;;;77.50;2227.20;;;;;;4994127;28;19913;-75
2023/11/26 00:09:55;;;;;;;;;;;77.30;2227.20;;;;;;4992785;28;19906;-75
2023/11/26 00:12:20;;;;;;;;;;;77.30;2227.20;;;;;;4994041;28;19909;-75
2023/11/26 00:14:47;;;;;;;;;;;77.30;2227.20;;;;;;4993949;28;20004;-75
2023/11/26 00:17:13;;;;;;;;;;;77.30;2227.20;;;;;;4993118;28;19905;-75
2023/11/26 00:19:39;;;;;;;;;;;77.40;2227.20;;;;;;4993815;28;19913;-75
2023/11/26 00:22:06;;;;;;;;;;;77.30;2227.20;;;;;;4992453;28;20012;-75
2023/11/26 00:24:31;;;;;;;;;;;77.30;2227.20;;;;;;4992704;28;19910;-75
2023/11/26 00:26:57;;;;;;;;;;;77.30;2227.20;;;;;;4993987;28;19906;-75
2023/11/26 00:29:22;;;;;;;;;;;77.40;2227.20;;;;;;4992505;28;20271;-74
2023/11/26 00:31:49;;;;;;;;;;;77.40;2227.20;;;;;;4993791;28;20260;-74
2023/11/26 00:34:15;;;;;;;;;;;77.40;2227.20;;;;;;4993943;28;19906;-74
2023/11/26 00:36:40;;;;;;;;;;;77.40;2227.20;;;;;;4994237;28;19910;-75
2023/11/26 00:39:06;;;;;;;;;;;77.40;2227.20;;;;;;4995804;28;19952;-74
2023/11/26 00:41:32;;;;;;;;;;;77.40;2227.20;;;;;;4997622;28;20279;-74
2023/11/26 00:43:57;;;;;;;;;;;77.40;2227.20;;;;;;4997514;28;19913;-75
2023/11/26 00:46:23;;;;;;;;;;;77.40;2227.20;;;;;;4980252;28;19957;-74
2023/11/26 00:48:48;;;;;;;;;;;77.30;2227.20;;;;;;4980160;28;20317;-75
2023/11/26 00:51:21;;;;;;;;;;;77.30;2227.20;;;;;;4980027;28;20000;-74
2023/11/26 00:53:48;;;;;;;;;;;77.30;2227.20;;;;;;4980111;28;19960;-75
2023/11/26 00:56:14;;;;;;;;;;;77.50;2227.20;;;;;;4979375;28;19959;-74
2023/11/26 00:58:40;;;;;;;;;;;77.40;2227.20;;;;;;4997337;28;19992;-75
2023/11/26 01:01:05;;;;;;;;;;;77.40;2227.20;;;;;;4997495;28;20267;-74
2023/11/26 01:03:31;;;;;;;;;;;77.30;2227.20;;;;;;4979809;28;19913;-75
2023/11/26 01:05:57;;;;;;;;;;;77.40;2227.20;;;;;;4979707;28;20346;-75
2023/11/26 01:08:24;;;;;;;;;;;77.60;2227.20;;;;;;4979683;28;19906;-75
2023/11/26 01:10:50;;;;;;;;;;;77.40;2227.20;;;;;;4980012;28;19957;-75
2023/11/26 01:13:16;;;;;;;;;;;77.40;2227.20;;;;;;4979475;28;19905;-75
2023/11/26 01:15:42;;;;;;;;;;;77.30;2227.20;;;;;;4997040;28;19936;-75
2023/11/26 01:18:07;;;;;;;;;;;77.30;2227.20;;;;;;4997101;28;19912;-75
2023/11/26 01:20:33;;;;;;;;;;;77.40;2227.20;;;;;;4976073;28;19918;-74
2023/11/26 01:22:59;;;;;;;;;;;77.30;2227.20;;;;;;4977624;28;19925;-75
2023/11/26 01:25:24;;;;;;;;;;;77.30;2227.20;;;;;;4976283;28;20269;-74
2023/11/26 01:27:50;;;;;;;;;;;77.20;2227.20;;;;;;4977463;28;19913;-75
2023/11/26 01:30:16;;;;;;;;;;;77.10;2227.20;;;;;;4977440;28;19910;-75
2023/11/26 01:32:41;;;;;;;;;;;77.00;2227.20;;;;;;4977164;28;19910;-74
2023/11/26 01:35:08;;;;;;;;;;;77.20;2227.20;;;;;;4976282;28;19906;-74
2023/11/26 01:37:34;;;;;;;;;;;77.40;2227.20;;;;;;4957937;28;20049;-74
2023/11/26 01:40:00;;;;;;;;;;;77.30;2227.20;;;;;;4956150;29;20343;-75
2023/11/26 01:42:25;;;;;;;;;;;77.20;2227.20;;;;;;4956048;29;19915;-75
2023/11/26 01:44:51;;;;;;;;;;;77.20;2227.20;;;;;;4957162;28;20328;-74
2023/11/26 01:47:17;;;;;;;;;;;77.00;2227.20;;;;;;4956092;29;19912;-74
2023/11/26 01:49:43;;;;;;;;;;;77.00;2227.20;;;;;;4954651;28;20004;-74
2023/11/26 01:52:10;;;;;;;;;;;77.00;2227.20;;;;;;4957132;28;19910;-74
2023/11/26 01:54:36;;;;;;;;;;;76.90;2227.20;;;;;;4957122;29;19906;-75
2023/11/26 01:57:02;;;;;;;;;;;76.80;2227.20;;;;;;4956109;28;19906;-74
2023/11/26 01:59:28;;;;;;;;;;;76.90;2227.20;;;;;;4955660;29;20284;-75
2023/11/26 02:01:54;;;;;;;;;;;76.90;2227.20;;;;;;4955551;29;19915;-74
2023/11/26 02:04:20;;;;;;;;;;;77.00;2227.20;;;;;;4957026;28;20323;-75
2023/11/26 02:06:46;;;;;;;;;;;77.10;2227.20;;;;;;4956940;29;19910;-74
2023/11/26 02:09:13;;;;;;;;;;;77.00;2227.20;;;;;;4955635;29;19913;-74
2023/11/26 02:11:39;;;;;;;;;;;76.90;2227.20;;;;;;4956912;28;20288;-75
2023/11/26 02:14:04;;;;;;;;;;;76.90;2227.20;;;;;;4956682;29;19906;-74
2023/11/26 02:16:30;;;;;;;;;;;77.10;2227.20;;;;;;4955371;29;19907;-74
2023/11/26 02:18:55;;;;;;;;;;;77.10;2227.20;;;;;;4955430;29;20000;-74
2023/11/26 02:21:21;;;;;;;;;;;76.90;2227.20;;;;;;4978667;28;19947;-75
2023/11/26 02:23:47;;;;;;;;;;;76.90;2227.20;;;;;;4994209;28;19964;-74
2023/11/26 02:26:12;;;;;;;;;;;76.80;2227.20;;;;;;4993876;28;19906;-75
2023/11/26 02:28:41;;;;;;;;;;;52.00;2227.20;;;;;;4993793;28;19905;-75
2023/11/26 02:31:06;;;;;;;;;;;52.10;2227.20;;;;;;4994254;28;19906;-74
2023/11/26 02:33:32;;;;;;;;;;;52.10;2227.20;;;;;;4994931;28;19906;-74
2023/11/26 02:35:58;;;;;;;;;;;76.80;2227.20;;;;;;4995204;28;20351;-74
2023/11/26 02:38:24;;;;;;;;;;;52.00;2227.20;;;;;;4995031;28;19913;-75
2023/11/26 02:40:49;;;;;;;;;;;52.10;2227.20;;;;;;4994881;28;19975;-74
2023/11/26 02:43:16;;;;;;;;;;;52.10;2227.20;;;;;;4994820;28;19917;-74
2023/11/26 02:45:42;;;;;;;;;;;52.10;2227.20;;;;;;4994934;28;19916;-74
2023/11/26 02:48:08;;;;;;;;;;;52.10;2227.20;;;;;;4994934;28;20005;-74
2023/11/26 02:50:33;;;;;;;;;;;52.00;2227.20;;;;;;4994659;28;19910;-75
2023/11/26 02:52:59;;;;;;;;;;;52.10;2227.20;;;;;;4993422;28;19917;-75
2023/11/26 02:55:25;;;;;;;;;;;52.00;2227.20;;;;;;4993475;28;19943;-74
2023/11/26 02:57:50;;;;;;;;;;;52.10;2227.20;;;;;;4995014;28;19933;-74
2023/11/26 03:00:16;;;;;;;;;;;76.80;2227.20;;;;;;4992623;28;19953;-75
2023/11/26 03:02:45;;;;;;;;;;;76.90;2227.20;;;;;;4993177;28;19925;-74
2023/11/26 03:05:17;;;;;;;;;;;76.80;2227.20;;;;;;4994323;28;19991;-75
2023/11/26 03:07:46;;;;;;;;;;;52.10;2227.20;;;;;;4994536;28;19957;-75
2023/11/26 03:13:20;;;;;;;;;;;76.80;2227.20;;;;;;4994420;28;19913;-74
2023/11/26 03:15:44;;;;;;;;;;;76.90;2227.20;;;;;;4993806;28;20052;-75
2023/11/26 03:18:12;;;;;;;;;;;76.80;2227.20;;;;;;4994269;28;19905;-75
2023/11/26 03:20:40;;;;;;;;;;;52.10;2227.20;;;;;;4992785;28;20390;-75
2023/11/26 03:23:05;;;;;;;;;;;76.80;2227.20;;;;;;4994252;28;19917;-74
2023/11/26 03:25:31;;;;;;;;;;;52.10;2227.20;;;;;;4994160;28;19909;-75
2023/11/26 03:28:00;;;;;;;;;;;76.80;2227.20;;;;;;4994268;28;19906;-74
2023/11/26 03:30:26;;;;;;;;;;;76.80;2227.20;;;;;;4993958;28;19905;-75
2023/11/26 03:32:55;;;;;;;;;;;76.80;2227.20;;;;;;4994034;28;19906;-74
2023/11/26 03:35:21;;;;;;;;;;;76.90;2227.20;;;;;;4993145;28;19916;-75
2023/11/26 03:37:47;;;;;;;;;;;76.80;2227.20;;;;;;4994046;28;19988;-74
2023/11/26 03:40:13;;;;;;;;;;;76.80;2227.20;;;;;;4993965;28;20532;-75
2023/11/26 03:42:39;;;;;;;;;;;52.10;2227.20;;;;;;4993727;28;19925;-74
2023/11/26 03:45:06;;;;;;;;;;;52.00;2227.20;;;;;;4993852;28;20279;-75
2023/11/26 03:47:32;;;;;;;;;;;76.90;2227.20;;;;;;4992555;28;19910;-74
2023/11/26 03:49:57;;;;;;;;;;;52.10;2227.20;;;;;;4993849;28;19960;-75
2023/11/26 03:52:23;;;;;;;;;;;52.10;2227.20;;;;;;4992598;28;19913;-74
2023/11/26 03:54:49;;;;;;;;;;;76.80;2227.20;;;;;;4994144;28;19905;-75
2023/11/26 03:57:15;;;;;;;;;;;76.80;2227.20;;;;;;4992542;28;19912;-75
2023/11/26 03:59:41;;;;;;;;;;;52.10;2227.20;;;;;;4992341;28;19917;-75
2023/11/26 04:02:07;;;;;;;;;;;52.10;2227.20;;;;;;4993411;28;19969;-74
2023/11/26 04:04:33;;;;;;;;;;;52.10;2227.20;;;;;;4993713;28;19941;-75
2023/11/26 04:06:59;;;;;;;;;;;52.10;2227.20;;;;;;4992361;28;19913;-74
2023/11/26 04:09:25;;;;;;;;;;;52.10;2227.20;;;;;;4993593;28;19905;-75
2023/11/26 04:11:51;;;;;;;;;;;52.10;2227.20;;;;;;4992086;28;20291;-74
2023/11/26 04:14:17;;;;;;;;;;;52.10;2227.20;;;;;;4992167;28;19906;-74
2023/11/26 04:16:48;;;;;;;;;;;52.10;2227.20;;;;;;4993599;28;19905;-74
2023/11/26 04:19:15;;;;;;;;;;;52.00;2227.20;;;;;;4993446;28;19906;-74
2023/11/26 04:21:42;;;;;;;;;;;52.00;2227.20;;;;;;4993030;28;20016;-74
2023/11/26 04:24:08;;;;;;;;;;;51.90;2227.20;;;;;;4992350;28;19916;-75
2023/11/26 04:26:34;;;;;;;;;;;51.90;2227.20;;;;;;4992200;28;19905;-75
2023/11/26 04:29:01;;;;;;;;;;;51.80;2227.20;;;;;;4992166;28;19980;-75
2023/11/26 04:31:26;;;;;;;;;;;51.80;2227.20;;;;;;4993249;28;20004;-75
2023/11/26 04:33:52;;;;;;;;;;;51.80;2227.20;;;;;;4993367;28;19980;-74
2023/11/26 04:36:18;;;;;;;;;;;51.90;2227.20;;;;;;4992189;28;20406;-74
2023/11/26 04:38:44;;;;;;;;;;;51.90;2227.20;;;;;;4993259;28;19948;-74
2023/11/26 04:41:10;;;;;;;;;;;52.00;2227.20;;;;;;4993360;28;19914;-75
2023/11/26 04:43:35;;;;;;;;;;;52.00;2227.20;;;;;;4993300;28;20271;-75
2023/11/26 04:46:02;;;;;;;;;;;52.10;2227.20;;;;;;4992932;28;19952;-74
2023/11/26 04:48:29;;;;;;;;;;;51.90;2227.20;;;;;;4991995;28;19914;-74
2023/11/26 04:50:56;;;;;;;;;;;52.10;2227.20;;;;;;4991821;28;19917;-75
2023/11/26 04:53:23;;;;;;;;;;;52.10;2227.20;;;;;;4991892;28;19945;-74
2023/11/26 04:55:49;;;;;;;;;;;52.10;2227.20;;;;;;4993140;28;19945;-75
2023/11/26 04:58:15;;;;;;;;;;;52.10;2227.20;;;;;;4991845;28;19913;-75
2023/11/26 05:00:40;;;;;;;;;;;76.80;2227.20;;;;;;4992887;28;20370;-75
2023/11/26 05:03:06;;;;;;;;;;;52.10;2227.20;;;;;;4992996;28;19921;-74
2023/11/26 05:05:32;;;;;;;;;;;52.10;2227.20;;;;;;4993185;28;20279;-74
2023/11/26 05:07:57;;;;;;;;;;;76.80;2227.20;;;;;;4991842;28;19905;-75
2023/11/26 05:10:24;;;;;;;;;;;52.00;2227.20;;;;;;4991739;28;20378;-74
2023/11/26 05:12:49;;;;;;;;;;;52.10;2227.20;;;;;;4991867;28;20046;-74
2023/11/26 05:15:16;;;;;;;;;;;52.00;2227.20;;;;;;4992973;28;19937;-75
2023/11/26 05:17:41;;;;;;;;;;;52.10;2227.20;;;;;;4993009;28;19906;-74
2023/11/26 05:20:13;;;;;;;;;;;52.10;2227.20;;;;;;4991569;28;20033;-74
2023/11/26 05:22:41;;;;;;;;;;;52.10;2227.20;;;;;;4991824;28;19980;-75
2023/11/26 05:25:07;;;;;;;;;;;52.10;2227.20;;;;;;4994209;28;19912;-75
2023/11/26 05:27:33;;;;;;;;;;;52.10;2227.20;;;;;;4995220;28;19906;-75
2023/11/26 05:30:00;;;;;;;;;;;52.10;2227.20;;;;;;4996240;28;19939;-75
2023/11/26 05:32:26;;;;;;;;;;;52.10;2227.20;;;;;;4996279;28;19906;-74
2023/11/26 05:34:51;;;;;;;;;;;52.00;2227.20;;;;;;4995104;28;19905;-75
2023/11/26 05:37:17;;;;;;;;;;;52.10;2227.20;;;;;;4996243;28;19912;-75
2023/11/26 05:39:43;;;;;;;;;;;52.10;2227.20;;;;;;4996252;28;19906;-74
2023/11/26 05:42:08;;;;;;;;;;;76.80;2227.20;;;;;;4994681;28;19914;-74
2023/11/26 05:44:34;;;;;;;;;;;52.10;2227.20;;;;;;4996242;28;20028;-75
2023/11/26 05:46:59;;;;;;;;;;;52.10;2227.20;;;;;;4995890;28;19913;-74
2023/11/26 05:49:26;;;;;;;;;;;52.10;2227.20;;;;;;4994678;28;19913;-74
2023/11/26 05:51:53;;;;;;;;;;;52.10;2227.20;;;;;;4994555;28;19920;-74
2023/11/26 05:54:18;;;;;;;;;;;76.80;2227.20;;;;;;4995703;28;20061;-74
2023/11/26 05:56:44;;;;;;;;;;;52.10;2227.20;;;;;;4995884;28;20006;-74
2023/11/26 05:59:10;;;;;;;;;;;52.00;2227.20;;;;;;4995834;28;20275;-74
2023/11/26 06:01:35;;;;;;;;;;;52.00;2227.20;;;;;;4995591;28;20283;-75
2023/11/26 06:04:01;;;;;;;;;;;52.10;2227.20;;;;;;4995796;28;19961;-75
2023/11/26 06:06:27;;;;;;;;;;;52.00;2227.20;;;;;;4995653;28;19944;-74
2023/11/26 06:08:52;;;;;;;;;;;51.80;2227.20;;;;;;4994379;28;19906;-74
2023/11/26 06:11:18;;;;;;;;;;;52.00;2227.20;;;;;;4994259;28;19913;-74
2023/11/26 06:13:44;;;;;;;;;;;51.80;2227.20;;;;;;4995398;28;19975;-74
2023/11/26 06:16:10;;;;;;;;;;;51.80;2227.20;;;;;;4995270;28;19951;-75
2023/11/26 06:18:37;;;;;;;;;;;51.90;2227.20;;;;;;4995611;28;20004;-74
2023/11/26 06:21:03;;;;;;;;;;;51.80;2227.20;;;;;;4995098;28;19922;-75
2023/11/26 06:23:29;;;;;;;;;;;51.70;2227.20;;;;;;4995179;28;20020;-74
2023/11/26 06:25:55;;;;;;;;;;;51.80;2227.20;;;;;;4993835;28;20272;-74
2023/11/26 06:28:20;;;;;;;;;;;51.70;2227.20;;;;;;4995048;28;19917;-74
2023/11/26 06:30:46;;;;;;;;;;;51.80;2227.20;;;;;;4995118;28;19912;-74
2023/11/26 06:33:11;;;;;;;;;;;52.00;2227.20;;;;;;4995014;28;19912;-74
2023/11/26 06:35:37;;;;;;;;;;;51.90;2227.20;;;;;;4982878;28;20028;-74
2023/11/26 06:38:05;;;;;;;;;;;51.90;2227.20;;;;;;4962273;28;19905;-74
2023/11/26 06:40:30;;;;;;;;;;;51.90;2227.20;;;;;;4967604;28;19914;-74
2023/11/26 06:42:56;;;;;;;;;;;51.80;2227.20;;;;;;4972636;28;19914;-74
2023/11/26 06:45:21;;;;;;;;;;;51.90;2227.20;;;;;;4965497;28;19906;-74
2023/11/26 06:47:47;;;;;;;;;;;51.90;2227.20;;;;;;4964932;28;19953;-74
2023/11/26 06:50:13;;;;;;;;;;;51.80;2227.20;;;;;;4966206;28;19953;-75
2023/11/26 06:52:38;;;;;;;;;;;52.00;2227.20;;;;;;4970373;28;19957;-74
2023/11/26 06:55:05;;;;;;;;;;;51.90;2227.20;;;;;;4968274;28;20031;-75
2023/11/26 06:57:32;;;;;;;;;;;51.90;2227.20;;;;;;4972574;28;19960;-74
2023/11/26 06:59:58;;;;;;;;;;;51.80;2227.20;;;;;;4960840;28;19929;-74
2023/11/26 07:02:25;;;;;;;;;;;51.70;2227.20;;;;;;4969205;28;19922;-75
2023/11/26 07:04:51;;;;;;;;;;;51.90;2227.20;;;;;;4963514;28;19907;-74
2023/11/26 07:07:22;;;;;;;;;;;51.90;2227.20;;;;;;4969179;28;19913;-74
2023/11/26 07:09:48;;;;;;;;;;;52.00;2227.20;;;;;;4965628;28;19906;-75
2023/11/26 07:12:14;;;;;;;;;;;52.00;2227.20;;;;;;4962818;28;19910;-74
2023/11/26 07:14:39;;;;;;;;;;;52.10;2227.20;;;;;;4973593;28;19913;-74
2023/11/26 07:17:06;;;;;;;;;;;76.80;2227.20;;;;;;4982199;28;19906;-74
2023/11/26 07:19:31;;;;;;;;;;;52.10;2227.20;;;;;;4965955;28;19962;-75
2023/11/26 07:21:57;;;;;;;;;;;76.80;2227.20;;;;;;4989591;28;19925;-75
2023/11/26 07:24:23;;;;;;;;;;;76.90;2227.20;;;;;;4976745;28;19912;-74
2023/11/26 07:26:48;;;;;;;;;;;77.10;2227.20;;;;;;4987305;28;19906;-75
2023/11/26 07:29:15;;;;;;;;;;;77.20;2227.20;;;;;;4989425;28;19910;-76
2023/11/26 07:31:41;;;;;;;;;;;77.30;2227.20;;;;;;4992986;28;20848;-76
2023/11/26 07:34:06;;;;;;;;;;;77.40;2227.20;;;;;;4990155;28;19906;-76
2023/11/26 07:36:32;;;;;;;;;;;77.50;2227.20;;;;;;4988301;28;19912;-78
2023/11/26 07:39:00;;;;;;;;;;;77.70;2227.20;;;;;;4988461;28;19949;-76
2023/11/26 07:41:26;;;;;;;;;;;77.70;2227.20;;;;;;4984543;28;19906;-75
2023/11/26 07:43:53;;;;;;;;;;;77.70;2227.20;;;;;;4986263;28;19996;-75
2023/11/26 07:46:21;;;;;;;;;;;77.70;2227.20;;;;;;4976266;28;19905;-76
2023/11/26 07:48:46;;;;;;;;;;;77.70;2227.20;;;;;;4988129;28;19913;-75
2023/11/26 07:51:12;;;;;;;;;;;102.40;2227.20;;;;;;4987098;28;19910;-76
2023/11/26 07:53:39;;;;;;;;;;;102.40;2227.20;;;;;;4990759;28;19910;-76
2023/11/26 07:56:05;;;;;;;;;;;77.60;2227.20;;;;;;4986262;28;19906;-77
2023/11/26 07:58:33;;;;;;;;;;;77.50;2227.20;;;;;;4988014;28;20001;-75
2023/11/26 08:01:02;;;;;;;;;;;77.60;2227.20;;;;;;4972463;28;20265;-75
2023/11/26 08:03:28;;;;;;;;;;;102.40;2227.20;;;;;;4992109;28;19913;-75
2023/11/26 08:05:54;;;;;;;;;;;102.50;2227.20;;;;;;4982249;28;19906;-75
2023/11/26 08:08:23;;;;;;;;;;;102.40;2227.20;;;;;;4985939;28;19912;-76
2023/11/26 08:10:49;;;;;;;;;;;102.40;2227.20;;;;;;4989925;28;19914;-76
2023/11/26 08:13:15;;;;;;;;;;;102.40;2227.20;;;;;;4967509;28;19955;-75
2023/11/26 08:15:41;;;;;;;;;;;102.60;2227.20;;;;;;4968311;28;19941;-75
2023/11/26 08:18:07;;;;;;;;;;;102.60;2227.20;;;;;;4987903;28;20245;-75
2023/11/26 08:20:33;;;;;;;;;;;102.50;2227.20;;;;;;4987824;28;19918;-76
2023/11/26 08:23:01;;;;;;;;;;;102.60;2227.20;;;;;;4972089;28;19917;-76
2023/11/26 08:25:29;;;;;;;;;;;102.80;2227.20;;;;;;4983315;28;20006;-75
2023/11/26 08:27:55;;;;;;;;;;;102.90;2227.20;;;;;;4988107;28;19918;-76
2023/11/26 08:30:39;;;;;;;;;;;128.10;2252.80;;;;;;4975720;28;19906;-75
2023/11/26 08:33:09;;;;;;;;;;;102.80;2227.20;;;;;;4966429;28;20005;-75
2023/11/26 08:35:36;;;;;;;;;;;102.80;2227.20;;;;;;4971129;28;19949;-75
2023/11/26 08:38:02;;;;;;;;;;;102.90;2227.20;;;;;;4971136;28;20442;-75
2023/11/26 08:40:33;;;;;;;;;;;102.80;2227.20;;;;;;4963834;28;19914;-76
2023/11/26 08:43:00;;;;;;;;;;;102.90;2227.20;;;;;;4986881;28;19950;-78
2023/11/26 08:45:26;;;;;;;;;;;102.90;2227.20;;;;;;4988849;28;19906;-75
2023/11/26 08:47:53;;;;;;;;;;;102.80;2227.20;;;;;;4969412;28;19976;-75
2023/11/26 08:50:18;;;;;;;;;;;102.90;2227.20;;;;;;4988050;28;19913;-81
2023/11/26 08:52:44;;;;;;;;;;;102.90;2227.20;;;;;;4972915;28;19914;-74
2023/11/26 08:55:09;;;;;;;;;;;103.10;2227.20;;;;;;4988963;28;19906;-79
2023/11/26 08:57:39;;;;;;;;;;;103.20;2227.20;;;;;;4972754;28;19906;-77
2023/11/26 09:00:09;;;;;;;;;;;103.30;2227.20;;;;;;4984227;28;19905;-76
2023/11/26 09:02:36;;;;;;;;;;;103.20;2227.20;;;;;;4979458;28;19914;-77
2023/11/26 09:05:03;;;;;;;;;;;128.10;2252.80;;;;;;4977951;28;19969;-75
2023/11/26 09:07:29;;;;;;;;;;;153.60;2252.80;;;;;;4976639;28;20370;-76
2023/11/26 09:09:54;;;;;;;;;;;128.50;2252.80;;;;;;4979522;28;19996;-78
2023/11/26 09:12:22;;;;;;;;;;;128.40;2252.80;;;;;;4973544;28;19906;-77
2023/11/26 09:14:48;;;;;;;;;;;128.60;2252.80;;;;;;4993846;28;20271;-76
2023/11/26 09:17:14;;;;;;;;;;;128.50;2252.80;;;;;;4995075;28;19920;-77
2023/11/26 09:19:39;;;;;;;;;;;128.40;2252.80;;;;;;4974051;28;19906;-76
2023/11/26 09:22:05;;;;;;;;;;;128.50;2252.80;;;;;;4991444;28;19921;-76
2023/11/26 09:24:31;;;;;;;;;;;128.80;2252.80;;;;;;4973367;28;19910;-78
2023/11/26 09:26:57;;;;;;;;;;;128.90;2252.80;;;;;;4975305;28;19910;-77
2023/11/26 09:29:22;;;;;;;;;;;153.60;2252.80;;;;;;4976003;28;19906;-77
2023/11/26 09:31:48;;;;;;;;;;;153.80;2252.80;;;;;;4973622;28;20047;-80
2023/11/26 09:34:13;;;;;;;;;;;153.70;2252.80;;;;;;4989303;28;19913;-78
2023/11/26 09:36:40;;;;;;;;;;;153.70;2252.80;;;;;;4978471;28;19909;-77
2023/11/26 09:39:05;;;;;;;;;;;153.70;2252.80;;;;;;4993145;28;19985;-76
2023/11/26 09:41:31;;;;;;;;;;;128.90;2252.80;;;;;;4972357;28;19997;-76
2023/11/26 09:43:56;;;;;;;;;;;153.70;2252.80;;;;;;4976164;28;20355;-78
2023/11/26 09:46:22;;;;;;;;;;;153.70;2252.80;;;;;;4987309;28;19909;-77
2023/11/26 09:48:47;;;;;;;;;;;153.70;2252.80;;;;;;4991216;28;19910;-78
2023/11/26 09:51:13;;;;;;;;;;;153.80;2252.80;;;;;;4967463;28;19914;-77
2023/11/26 09:53:40;;;;;;;;;;;128.90;2252.80;;;;;;4996452;28;20352;-78
2023/11/26 09:56:09;;;;;;;;;;;128.90;2252.80;;;;;;4975525;28;20008;-78
2023/11/26 09:58:41;;;;;;;;;;;153.80;2252.80;;;;;;4967314;28;20353;-78
2023/11/26 10:01:07;;;;;;;;;;;153.80;2252.80;;;;;;4973529;28;19906;-78
2023/11/26 10:03:52;;;;;;;;;;;153.80;2252.80;;;;;;4990441;28;19921;-79
2023/11/26 10:06:17;;;;;;;;;;;153.80;2252.80;;;;;;4975790;28;19910;-77
2023/11/26 10:08:43;;;;;;;;;;;153.80;2252.80;;;;;;4974688;28;19906;-79
2023/11/26 10:11:08;;;;;;;;;;;153.80;2252.80;;;;;;4970509;28;19905;-76
2023/11/26 10:13:40;;;;;;;;;;;153.70;2252.80;;;;;;4991812;28;19956;-78
2023/11/26 10:16:07;;;;;;;;;;;153.60;2252.80;;;;;;4979546;28;19905;-79
2023/11/26 10:18:40;;;;;;;;;;;153.60;2252.80;;;;;;4972226;28;19916;-75
2023/11/26 10:21:06;;;;;;;;;;;128.90;2252.80;;;;;;4970413;28;20376;-80
2023/11/26 10:23:36;;;;;;;;;;;128.80;2252.80;;;;;;4988593;28;19975;-82
2023/11/26 10:26:04;;;;;;;;;;;153.60;2252.80;;;;;;4968844;28;19910;-80
2023/11/26 10:28:30;;;;;;;;;;;153.70;2252.80;;;;;;4977114;28;19933;-77
2023/11/26 10:31:04;;;;;;;;;;;153.80;2252.80;;;;;;4974293;28;19910;-80
2023/11/26 10:33:30;;;;;;;;;;;153.80;2252.80;;;;;;4994777;28;19906;-80
2023/11/26 10:35:56;;;;;;;;;;;153.60;2252.80;;;;;;4968317;28;19913;-79
2023/11/26 10:38:24;;;;;;;;;;;153.80;2252.80;;;;;;4972986;28;19914;-79
2023/11/26 10:40:50;;;;;;;;;;;153.70;2252.80;;;;;;4972920;28;20377;-79
2023/11/26 10:43:18;;;;;;;;;;;153.60;2252.80;;;;;;4977370;28;19921;-79
2023/11/26 10:45:43;;;;;;;;;;;153.70;2252.80;;;;;;4970964;28;19919;-79
2023/11/26 10:48:10;;;;;;;;;;;153.60;2252.80;;;;;;4986625;28;19910;-80
2023/11/26 10:50:41;;;;;;;;;;;128.90;2252.80;;;;;;4969747;28;19917;-79
2023/11/26 10:53:30;;;;;;;;;;;128.90;2252.80;;;;;;4975752;28;19910;-78
2023/11/26 10:56:00;;;;;;;;;;;153.60;2252.80;;;;;;4983969;28;19906;-79
2023/11/26 10:58:30;;;;;;;;;;;153.70;2252.80;;;;;;4987605;28;20412;-77
2023/11/26 11:00:59;;;;;;;;;;;153.70;2252.80;;;;;;4992498;28;19913;-78
2023/11/26 11:03:25;;;;;;;;;;;153.70;2252.80;;;;;;4972822;28;20021;-77
2023/11/26 11:05:52;;;;;;;;;;;153.70;2252.80;;;;;;4991140;28;20359;-77
2023/11/26 11:08:17;;;;;;;;;;;153.60;2252.80;;;;;;4969092;28;19906;-76
2023/11/26 11:11:02;;;;;;;;;;;128.90;2252.80;;;;;;4967448;28;19989;-77
2023/11/26 11:13:28;;;;;;;;;;;128.90;2252.80;;;;;;4989332;28;19953;-75
2023/11/26 11:15:54;;;;;;;;;;;128.80;2252.80;;;;;;4990453;28;19931;-77
2023/11/26 11:18:26;;;;;;;;;;;128.80;2252.80;;;;;;4976200;28;19912;-75
2023/11/26 11:21:00;;;;;;;;;;;128.90;2252.80;;;;;;4967780;28;19953;-74
2023/11/26 11:23:32;;;;;;;;;;;128.90;2252.80;;;;;;4965739;28;19925;-75
2023/11/26 11:25:58;;;;;;;;;;;128.90;2252.80;;;;;;4961361;28;20291;-75
2023/11/26 11:28:36;;;;;;;;;;;153.60;2252.80;;;;;;4978360;28;19913;-76
2023/11/26 11:31:02;;;;;;;;;;;153.70;2252.80;;;;;;4990414;28;20363;-76
2023/11/26 11:33:27;;;;;;;;;;;153.70;2252.80;;;;;;4964445;28;19913;-76
2023/11/26 11:35:53;;;;;;;;;;;153.70;2252.80;;;;;;4973247;28;19940;-76
2023/11/26 11:38:20;;;;;;;;;;;153.80;2252.80;;;;;;4984768;28;19910;-77
2023/11/26 11:40:59;;;;;;;;;;;128.90;2252.80;;;;;;4984231;28;19906;-77
2023/11/26 11:43:25;;;;;;;;;;;153.80;2252.80;;;;;;4968397;28;19940;-76
2023/11/26 11:45:51;;;;;;;;;;;153.80;2252.80;;;;;;4969192;28;19961;-74
2023/11/26 11:48:35;;;;;;;;;;;153.80;2252.80;;;;;;4984565;28;19949;-75
2023/11/26 11:51:01;;;;;;;;;;;154.10;2252.80;;;;;;4973090;28;19917;-75
2023/11/26 11:53:32;;;;;;;;;;;154.00;2252.80;;;;;;4990523;28;20283;-75
2023/11/26 11:56:02;;;;;;;;;;;154.10;2252.80;;;;;;4985641;28;20356;-74
2023/11/26 11:58:28;;;;;;;;;;;154.20;2252.80;;;;;;4990482;28;19905;-75
2023/11/26 12:00:56;;;;;;;;;;;154.20;2252.80;;;;;;4981123;28;19905;-75
2023/11/26 12:03:22;;;;;;;;;;;154.10;2252.80;;;;;;4972568;28;19917;-76
2023/11/26 12:05:50;;;;;;;;;;;154.20;2252.80;;;;;;4977074;28;19969;-76
2023/11/26 12:08:16;;;;;;;;;;;154.20;2252.80;;;;;;4988233;28;19915;-75
2023/11/26 12:10:42;;;;;;;;;;;154.00;2252.80;;;;;;4978887;28;19910;-75
2023/11/26 12:13:09;;;;;;;;;;;154.00;2252.80;;;;;;4988328;28;20004;-75
2023/11/26 12:15:37;;;;;;;;;;;154.00;2252.80;;;;;;4985158;28;20102;-75
2023/11/26 12:18:03;;;;;;;;;;;154.10;2252.80;;;;;;4987429;28;19949;-74
2023/11/26 12:20:28;;;;;;;;;;;154.00;2252.80;;;;;;4987820;28;20031;-74
2023/11/26 12:22:55;;;;;;;;;;;154.20;2252.80;;;;;;4960157;28;19918;-74
2023/11/26 12:25:21;;;;;;;;;;;154.00;2252.80;;;;;;4981687;28;19941;-74
2023/11/26 12:28:07;;;;;;;;;;;154.00;2252.80;;;;;;4985914;28;19906;-74
2023/11/26 12:30:33;;;;;;;;;;;154.00;2252.80;;;;;;4988792;28;20275;-74
2023/11/26 12:32:59;;;;;;;;;;;154.20;2252.80;;;;;;4970375;28;19913;-74
2023/11/26 12:35:27;;;;;;;;;;;154.10;2252.80;;;;;;4965892;28;19913;-74
2023/11/26 12:37:54;;;;;;;;;;;154.10;2252.80;;;;;;4990933;28;19984;-75
2023/11/26 12:40:20;;;;;;;;;;;154.00;2252.80;;;;;;4969513;28;19913;-75
2023/11/26 12:42:46;;;;;;;;;;;154.10;2252.80;;;;;;4979056;28;19920;-75
2023/11/26 12:45:12;;;;;;;;;;;154.10;2252.80;;;;;;4991336;28;20004;-75
2023/11/26 12:47:56;;;;;;;;;;;154.10;2252.80;;;;;;4967352;28;19913;-76
2023/11/26 12:50:22;;;;;;;;;;;154.10;2252.80;;;;;;4986731;28;20000;-75
2023/11/26 12:52:48;;;;;;;;;;;154.20;2252.80;;;;;;4975535;28;20005;-75
2023/11/26 12:55:14;;;;;;;;;;;154.10;2252.80;;;;;;4995428;28;20016;-75
2023/11/26 12:57:40;;;;;;;;;;;154.00;2252.80;;;;;;4993652;28;20334;-75
2023/11/26 13:00:10;;;;;;;;;;;153.90;2252.80;;;;;;4991079;28;19951;-75
2023/11/26 13:02:39;;;;;;;;;;;153.80;2252.80;;;;;;4990586;28;20004;-75
2023/11/26 13:05:27;;;;;;;;;;;153.80;2252.80;;;;;;4991806;28;19906;-75
2023/11/26 13:07:53;;;;;;;;;;;153.90;2252.80;;;;;;4986088;28;19992;-75
2023/11/26 13:10:19;;;;;;;;;;;153.90;2252.80;;;;;;4973289;28;19957;-75
2023/11/26 13:12:45;;;;;;;;;;;153.90;2252.80;;;;;;4978839;28;20336;-75
2023/11/26 13:15:13;;;;;;;;;;;154.00;2252.80;;;;;;4990966;28;19910;-75
2023/11/26 13:17:40;;;;;;;;;;;153.90;2252.80;;;;;;4993274;28;19952;-75
2023/11/26 13:20:12;;;;;;;;;;;153.90;2252.80;;;;;;4974863;28;19910;-75
2023/11/26 13:22:38;;;;;;;;;;;154.00;2252.80;;;;;;4989222;28;19929;-74
2023/11/26 13:25:04;;;;;;;;;;;154.10;2252.80;;;;;;4977661;28;19910;-75
2023/11/26 13:27:29;;;;;;;;;;;154.10;2252.80;;;;;;4962750;28;19910;-75
2023/11/26 13:29:55;;;;;;;;;;;154.10;2252.80;;;;;;4969936;28;19945;-75
2023/11/26 13:32:21;;;;;;;;;;;154.00;2252.80;;;;;;4966759;28;20328;-75
2023/11/26 13:34:46;;;;;;;;;;;154.10;2252.80;;;;;;4972778;28;19951;-74
2023/11/26 13:37:16;;;;;;;;;;;154.30;2252.80;;;;;;4970495;28;19910;-75
2023/11/26 13:39:43;;;;;;;;;;;154.30;2252.80;;;;;;4987472;28;20178;-75
2023/11/26 13:42:08;;;;;;;;;;;154.20;2252.80;;;;;;4969429;28;19996;-75
2023/11/26 13:44:35;;;;;;;;;;;154.20;2252.80;;;;;;4989320;28;20387;-75
2023/11/26 13:47:04;;;;;;;;;;;154.20;2252.80;;;;;;4977160;28;19930;-74